Time;durP1;ratioP1;P1;durP2;ratioP2;P2;SDS_P1;SDS_P2;PMS_P1;PMS_P2;Temp;Humidity;BMP_temperature;BMP_pressure;BME280_temperature;BME280_humidity;BME280_pressure;Samples;Min_cycle;Max_cycle;Signal;HPM_P1;HPM_P2
2022/01/15 00:01:28;;;;;;;3.80;0.50;;;;;;;5.78;100.00;103312.00;4911175;29;20039;-78
2022/01/15 00:03:54;;;;;;;0.75;0.40;;;;;;;5.87;100.00;103323.91;4896308;29;20703;-79
2022/01/15 00:06:19;;;;;;;3.55;0.50;;;;;;;5.72;100.00;103306.13;4923845;29;20559;-79
2022/01/15 00:08:44;;;;;;;3.20;0.55;;;;;;;5.75;100.00;103299.03;4896370;29;20036;-79
2022/01/15 00:11:10;;;;;;;2.30;0.60;;;;;;;5.62;100.00;103276.81;4909734;29;20519;-79
2022/01/15 00:13:38;;;;;;;2.10;0.60;;;;;;;5.82;100.00;103315.38;4922070;29;20058;-79
2022/01/15 00:16:10;;;;;;;1.52;0.65;;;;;;;5.74;100.00;103299.91;4909309;29;20030;-79
2022/01/15 00:18:45;;;;;;;2.75;0.80;;;;;;;5.74;100.00;103302.53;4913810;29;20463;-79
2022/01/15 00:21:13;;;;;;;4.00;0.68;;;;;;;5.81;100.00;103299.69;4899041;29;20064;-79
2022/01/15 00:23:38;;;;;;;1.27;0.55;;;;;;;5.72;100.00;103293.88;4905070;29;20043;-79
2022/01/15 00:26:04;;;;;;;1.05;0.60;;;;;;;5.72;100.00;103290.41;4904795;29;20035;-79
2022/01/15 00:28:29;;;;;;;1.38;0.63;;;;;;;5.71;100.00;103284.31;4913474;29;20027;-79
2022/01/15 00:30:55;;;;;;;1.67;0.85;;;;;;;5.72;100.00;103285.19;4909219;29;20040;-79
2022/01/15 00:33:20;;;;;;;0.95;0.50;;;;;;;5.68;100.00;103279.22;4921642;29;20362;-79
2022/01/15 00:35:45;;;;;;;1.10;0.43;;;;;;;5.67;100.00;103287.97;4905933;29;20519;-79
2022/01/15 00:38:11;;;;;;;1.00;0.50;;;;;;;5.67;100.00;103290.59;4903679;29;20060;-79
2022/01/15 00:40:36;;;;;;;1.58;0.88;;;;;;;5.57;100.00;103271.75;4893109;29;20047;-79
2022/01/15 00:43:02;;;;;;;1.00;0.60;;;;;;;5.72;100.00;103290.41;4894589;29;20369;-79
2022/01/15 00:45:32;;;;;;;1.48;0.82;;;;;;;5.70;100.00;103287.84;4924430;29;20027;-79
2022/01/15 00:47:58;;;;;;;5.68;0.95;;;;;;;5.55;100.00;103259.59;4923607;29;20052;-79
2022/01/15 00:50:23;;;;;;;1.52;0.80;;;;;;;5.57;100.00;103265.66;4914138;29;20484;-79
2022/01/15 00:52:49;;;;;;;1.20;0.68;;;;;;;5.56;100.00;103262.19;4913739;29;20046;-79
2022/01/15 00:55:16;;;;;;;0.90;0.73;;;;;;;5.56;100.00;103258.72;4925501;29;20031;-79
2022/01/15 00:57:42;;;;;;;1.92;0.60;;;;;;;5.66;100.00;103274.94;4906321;29;20051;-79
2022/01/15 01:00:10;;;;;;;1.42;0.57;;;;;;;5.66;100.00;103275.81;4924694;29;20040;-79
2022/01/15 01:02:36;;;;;;;1.98;0.88;;;;;;;5.67;100.00;103272.25;4923467;29;20027;-79
2022/01/15 01:05:01;;;;;;;6.57;0.90;;;;;;;5.67;100.00;103261.78;4922332;29;20036;-79
2022/01/15 01:07:27;;;;;;;1.10;0.50;;;;;;;5.67;100.00;103256.53;4906103;29;20465;-78
2022/01/15 01:10:05;;;;;;;11.15;0.75;;;;;;;5.62;100.00;103255.00;4915582;29;20035;-78
2022/01/15 01:12:57;;;;;;;0.70;0.50;;;;;;;5.52;100.00;103230.94;4909851;29;20484;-79
2022/01/15 01:21:28;;;;;;;0.98;0.50;;;;;;;5.51;100.00;103226.63;4924555;29;20043;-79
2022/01/15 01:23:48;;;;;;;1.20;0.57;;;;;;;5.62;100.00;103241.88;4916774;29;20044;-79
2022/01/15 01:26:42;;;;;;;12.50;0.98;;;;;;;5.61;100.00;103256.75;4923445;29;20066;-79
2022/01/15 01:32:01;;;;;;;9.25;0.95;;;;;;;5.40;100.00;103257.56;4913728;29;20130;-79
2022/01/15 01:34:29;;;;;;;17.88;1.27;;;;;;;5.35;100.00;103242.88;4905069;29;20381;-79
2022/01/15 01:37:05;;;;;;;1.60;0.82;;;;;;;5.36;100.00;103235.91;4905934;29;20032;-79
2022/01/15 01:39:47;;;;;;;10.88;0.90;;;;;;;5.38;100.00;103262.00;4901199;29;20040;-79
2022/01/15 01:45:08;;;;;;;3.17;0.80;;;;;;;5.19;100.00;103239.13;4921667;29;19978;-79
2022/01/15 01:47:41;;;;;;;1.20;0.85;;;;;;;5.31;100.00;103249.16;4928179;29;20068;-79
2022/01/15 01:50:26;;;;;;;16.10;1.33;;;;;;;5.32;100.00;103245.63;4913122;29;20448;-79
2022/01/15 01:52:56;;;;;;;1.80;0.90;;;;;;;5.34;100.00;103249.03;4904108;29;20035;-79
2022/01/15 01:55:24;;;;;;;39.00;2.13;;;;;;;5.23;100.00;103234.66;4928305;29;20028;-79
2022/01/15 01:57:52;;;;;;;11.02;1.40;;;;;;;5.11;100.00;103241.16;4911189;29;20465;-79
2022/01/15 02:00:20;;;;;;;3.42;1.08;;;;;;;5.06;100.00;103227.41;4906697;29;20036;-79
2022/01/15 02:02:49;;;;;;;1.73;0.75;;;;;;;5.05;100.00;103217.81;4903281;29;20039;-79
2022/01/15 02:05:16;;;;;;;0.95;0.50;;;;;;;5.14;100.00;103230.59;4932059;29;20122;-79
2022/01/15 02:07:43;;;;;;;2.60;0.82;;;;;;;5.06;100.00;103233.50;4903878;29;20107;-79
2022/01/15 02:10:12;;;;;;;2.50;1.10;;;;;;;4.95;100.00;103227.78;4918833;29;20118;-79
2022/01/15 02:12:38;;;;;;;6.20;0.90;;;;;;;4.72;100.00;103203.28;4932762;29;20164;-79
2022/01/15 02:15:16;;;;;;;3.63;0.85;;;;;;;4.86;100.00;103218.50;4915586;29;20127;-79
2022/01/15 02:17:44;;;;;;;2.05;1.20;;;;;;;4.80;100.00;103200.41;4928354;29;20059;-79
2022/01/15 02:25:47;;;;;;;1.40;0.93;;;;;;;4.88;100.00;103215.84;4928276;29;20086;-79
2022/01/15 02:28:13;;;;;;;13.82;1.33;;;;;;;4.73;100.00;103194.53;4932009;29;20153;-79
2022/01/15 02:30:39;;;;;;;15.45;1.15;;;;;;;4.74;100.00;103204.06;4924795;29;20028;-79
2022/01/15 02:33:05;;;;;;;3.97;1.27;;;;;;;4.63;100.00;103184.44;4929789;29;20032;-79
2022/01/15 02:35:31;;;;;;;3.80;0.93;;;;;;;4.57;100.00;103188.13;4908370;29;20051;-79
2022/01/15 02:38:04;;;;;;;4.00;0.70;;;;;;;4.58;100.00;103181.16;4901421;29;20396;-79
2022/01/15 02:40:33;;;;;;;1.27;0.55;;;;;;;4.50;100.00;103161.34;4924850;29;20096;-79
2022/01/15 02:43:04;;;;;;;1.52;0.50;;;;;;;4.62;100.00;103156.59;4917774;29;20028;-79
2022/01/15 02:45:32;;;;;;;1.45;0.80;;;;;;;4.83;100.00;103178.50;4916483;29;20507;-79
2022/01/15 02:48:02;;;;;;;1.42;0.82;;;;;;;4.90;100.00;103180.84;4922384;29;20051;-79
2022/01/15 02:50:28;;;;;;;1.42;0.80;;;;;;;4.86;100.00;103162.72;4922938;29;20036;-79
2022/01/15 02:52:53;;;;;;;0.90;0.60;;;;;;;4.89;100.00;103166.06;4922046;29;20035;-79
2022/01/15 02:55:18;;;;;;;2.25;0.70;;;;;;;4.97;100.00;103175.41;4916083;29;20040;-79
2022/01/15 02:57:44;;;;;;;1.67;0.68;;;;;;;4.83;100.00;103160.19;4920888;29;20036;-79
2022/01/15 03:00:10;;;;;;;4.15;0.68;;;;;;;4.77;100.00;103163.91;4909030;29;20040;-78
2022/01/15 03:02:36;;;;;;;2.03;0.68;;;;;;;4.68;100.00;103152.00;4914682;29;20040;-79
2022/01/15 03:05:01;;;;;;;5.78;0.98;;;;;;;4.83;100.00;103166.25;4914835;29;20046;-79
2022/01/15 03:07:26;;;;;;;2.05;0.93;;;;;;;4.76;100.00;103156.09;4931338;29;20024;-79
2022/01/15 03:09:52;;;;;;;1.98;0.85;;;;;;;4.90;100.00;103175.63;4898380;29;20048;-79
2022/01/15 03:12:17;;;;;;;2.67;0.88;;;;;;;4.85;100.00;103166.22;4917440;29;20400;-79
2022/01/15 03:14:45;;;;;;;1.10;0.63;;;;;;;4.82;100.00;103148.88;4901007;29;20123;-79
2022/01/15 03:17:10;;;;;;;3.10;0.80;;;;;;;4.97;100.00;103159.69;4916365;29;20054;-79
2022/01/15 03:19:36;;;;;;;5.88;1.10;;;;;;;4.97;100.00;103133.53;4927567;29;20551;-79
2022/01/15 03:22:02;;;;;;;4.60;1.10;;;;;;;5.13;100.00;103160.81;4899017;29;20032;-79
2022/01/15 03:24:28;;;;;;;1.98;0.80;;;;;;;5.18;100.00;103174.56;4931287;29;20059;-79
2022/01/15 03:26:53;;;;;;;3.10;1.33;;;;;;;5.15;100.00;103153.75;4931558;29;20034;-79
2022/01/15 03:29:18;;;;;;;5.70;1.13;;;;;;;5.12;100.00;103151.28;4909647;29;20040;-79
2022/01/15 03:31:44;;;;;;;2.67;1.23;;;;;;;5.21;100.00;103169.25;4913122;29;20070;-79
2022/01/15 03:34:09;;;;;;;4.65;1.25;;;;;;;5.23;100.00;103170.03;4906759;29;20086;-79
2022/01/15 03:36:35;;;;;;;1.77;0.60;;;;;;;5.19;100.00;103150.13;4915306;29;20035;-79
2022/01/15 03:39:00;;;;;;;5.25;0.85;;;;;;;5.13;100.00;103140.72;4898312;29;20095;-79
2022/01/15 03:41:25;;;;;;;5.80;1.02;;;;;;;5.20;100.00;103151.81;4914343;29;20106;-79
2022/01/15 03:43:51;;;;;;;7.63;0.80;;;;;;;5.17;100.00;103149.31;4912653;29;20036;-79
2022/01/15 03:46:16;;;;;;;3.58;0.80;;;;;;;5.19;100.00;103144.03;4909696;29;20112;-79
2022/01/15 03:48:41;;;;;;;2.92;0.90;;;;;;;5.26;100.00;103154.19;4925560;29;20068;-79
2022/01/15 03:51:07;;;;;;;3.70;0.60;;;;;;;5.24;100.00;103153.41;4897831;29;20043;-79
2022/01/15 03:53:33;;;;;;;1.75;0.75;;;;;;;5.19;100.00;103134.41;4899143;29;20480;-79
2022/01/15 03:55:58;;;;;;;1.15;0.70;;;;;;;5.17;100.00;103141.47;4910765;29;20032;-79
2022/01/15 03:58:24;;;;;;;1.45;0.60;;;;;;;5.29;100.00;103151.50;4905817;29;20032;-79
2022/01/15 04:00:49;;;;;;;3.35;0.82;;;;;;;5.28;100.00;103143.69;4929777;29;20024;-79
2022/01/15 04:03:15;;;;;;;2.40;1.00;;;;;;;5.20;100.00;103125.63;4908294;29;20142;-79
2022/01/15 04:05:41;;;;;;;9.90;1.05;;;;;;;5.18;100.00;103127.47;4910227;29;20378;-79
2022/01/15 04:08:07;;;;;;;4.43;0.82;;;;;;;5.24;100.00;103132.47;4897968;29;20067;-79
2022/01/15 04:10:33;;;;;;;3.22;0.82;;;;;;;5.14;100.00;103112.81;4925643;29;20028;-79
2022/01/15 04:12:58;;;;;;;6.75;1.15;;;;;;;5.26;100.00;103125.41;4898494;29;20036;-79
2022/01/15 04:15:25;;;;;;;7.00;1.13;;;;;;;5.26;100.00;103125.41;4925418;29;20660;-79
2022/01/15 04:17:50;;;;;;;9.27;1.10;;;;;;;5.27;100.00;103118.41;4897979;29;20039;-79
2022/01/15 04:20:20;;;;;;;4.45;0.70;;;;;;;5.22;100.00;103117.72;4911154;29;20067;-79
2022/01/15 04:22:45;;;;;;;2.17;0.50;;;;;;;5.21;100.00;103116.03;4913600;29;20035;-79
2022/01/15 04:25:11;;;;;;;1.90;0.50;;;;;;;5.24;100.00;103122.00;4894315;29;20032;-79
2022/01/15 04:27:38;;;;;;;3.30;0.70;;;;;;;5.18;100.00;103101.28;4931317;29;20060;-78
2022/01/15 04:30:05;;;;;;;2.65;0.85;;;;;;;5.25;100.00;103108.00;4902372;29;20107;-79
2022/01/15 04:32:31;;;;;;;2.60;0.88;;;;;;;5.11;100.00;103105.91;4925492;29;20040;-79
2022/01/15 04:34:58;;;;;;;3.35;0.93;;;;;;;5.11;100.00;103105.91;4925845;29;20416;-79
2022/01/15 04:37:31;;;;;;;5.53;0.75;;;;;;;5.02;100.00;103092.31;4899460;29;20039;-79
2022/01/15 04:39:56;;;;;;;5.10;0.63;;;;;;;5.14;100.00;103110.19;4908551;29;20048;-79
2022/01/15 04:42:25;;;;;;;2.15;0.93;;;;;;;5.06;100.00;103086.06;4924680;29;20062;-79
2022/01/15 04:44:50;;;;;;;1.92;0.93;;;;;;;5.12;100.00;103102.38;4896857;29;20834;-79
2022/01/15 04:47:15;;;;;;;4.30;1.08;;;;;;;5.11;100.00;103112.91;4902463;29;20114;-79
2022/01/15 04:49:41;;;;;;;1.98;0.77;;;;;;;5.11;100.00;103110.28;4905632;29;20586;-79
2022/01/15 04:52:06;;;;;;;2.20;0.93;;;;;;;5.15;100.00;103112.72;4912257;29;20464;-79
2022/01/15 04:54:32;;;;;;;2.10;0.63;;;;;;;5.08;100.00;103089.47;4911856;29;20079;-79
2022/01/15 04:56:57;;;;;;;3.83;0.63;;;;;;;5.10;100.00;103108.59;4898434;29;20040;-79
2022/01/15 04:59:23;;;;;;;5.60;0.77;;;;;;;4.85;100.00;103098.19;4898619;29;20039;-79
2022/01/15 05:01:50;;;;;;;4.00;0.40;;;;;;;4.79;100.00;103108.88;4904662;29;20032;-79
2022/01/15 05:04:15;;;;;;;0.43;0.30;;;;;;;4.59;100.00;103086.06;4925214;29;20387;-79
2022/01/15 05:06:41;;;;;;;2.90;0.38;;;;;;;4.69;100.00;103095.31;4911924;29;20032;-79
2022/01/15 05:09:07;;;;;;;5.80;0.88;;;;;;;4.65;100.00;103098.94;4931484;29;20047;-79
2022/01/15 05:11:48;;;;;;;2.55;0.73;;;;;;;4.48;100.00;103100.38;4918734;29;20051;-79
2022/01/15 05:14:17;;;;;;;1.02;0.93;;;;;;;4.41;100.00;103093.69;4886232;29;20425;-79
2022/01/15 05:16:43;;;;;;;5.35;0.52;;;;;;;4.51;100.00;103104.69;4906605;29;20035;-79
2022/01/15 05:19:08;;;;;;;0.95;0.40;;;;;;;4.56;100.00;103094.88;4926257;29;20050;-79
2022/01/15 05:21:34;;;;;;;2.58;0.45;;;;;;;4.52;100.00;103088.91;4901317;29;20504;-79
2022/01/15 05:23:59;;;;;;;1.65;0.40;;;;;;;4.59;100.00;103096.53;4897595;29;20122;-79
2022/01/15 05:26:25;;;;;;;1.80;0.40;;;;;;;4.39;100.00;103073.72;4929233;29;20031;-79
2022/01/15 05:28:50;;;;;;;1.17;0.50;;;;;;;4.50;100.00;103097.72;4917903;29;20031;-79
2022/01/15 05:31:16;;;;;;;0.93;0.40;;;;;;;4.41;100.00;103071.91;4900008;29;20028;-79
2022/01/15 05:33:41;;;;;;;0.40;0.22;;;;;;;4.47;100.00;103080.38;4896342;29;20168;-79
2022/01/15 05:36:07;;;;;;;1.00;0.30;;;;;;;4.63;100.00;103095.53;4915337;29;20040;-79
2022/01/15 05:38:32;;;;;;;2.15;0.60;;;;;;;4.64;100.00;103098.09;4929464;29;20385;-79
2022/01/15 05:40:58;;;;;;;2.28;0.60;;;;;;;4.56;100.00;103071.34;4918267;29;20032;-79
2022/01/15 05:43:23;;;;;;;1.27;0.60;;;;;;;4.66;100.00;103067.50;4901975;29;20038;-79
2022/01/15 05:45:49;;;;;;;4.00;0.70;;;;;;;4.78;100.00;103060.94;4926872;29;20505;-79
2022/01/15 05:48:15;;;;;;;1.73;0.30;;;;;;;4.83;100.00;103061.59;4927299;29;20670;-79
2022/01/15 05:50:41;;;;;;;2.78;0.50;;;;;;;4.70;100.00;103047.28;4934160;29;20047;-79
2022/01/15 05:53:07;;;;;;;1.77;0.40;;;;;;;4.64;100.00;103053.63;4916320;29;20047;-79
2022/01/15 05:55:32;;;;;;;3.13;0.60;;;;;;;4.65;100.00;103046.63;4924286;29;20039;-79
2022/01/15 05:57:57;;;;;;;2.05;0.75;;;;;;;4.81;100.00;103063.44;4908367;29;20039;-79
2022/01/15 06:00:23;;;;;;;3.17;0.50;;;;;;;4.80;100.00;103050.44;4915599;29;20035;-79
2022/01/15 06:02:48;;;;;;;1.27;0.40;;;;;;;4.90;100.00;103068.34;4919183;29;20373;-80
2022/01/15 06:05:14;;;;;;;0.98;0.40;;;;;;;4.88;100.00;103075.38;4884897;29;20039;-79
2022/01/15 06:07:39;;;;;;;0.68;0.40;;;;;;;4.84;100.00;103073.81;4905419;29;20742;-80
2022/01/15 06:10:05;;;;;;;1.17;0.40;;;;;;;4.79;100.00;103054.81;4926636;29;20123;-79
2022/01/15 06:12:32;;;;;;;0.82;0.40;;;;;;;4.80;100.00;103048.66;4893054;29;20036;-79
2022/01/15 06:14:58;;;;;;;2.67;0.52;;;;;;;4.95;100.00;103069.00;4894220;29;20032;-79
2022/01/15 06:17:24;;;;;;;1.88;0.70;;;;;;;4.97;100.00;103071.56;4921201;29;20020;-79
2022/01/15 06:19:50;;;;;;;1.83;0.55;;;;;;;4.95;100.00;103058.53;4921324;29;20067;-79
2022/01/15 06:22:15;;;;;;;3.58;0.68;;;;;;;5.03;100.00;103065.22;4914354;29;20036;-79
2022/01/15 06:24:41;;;;;;;1.67;0.50;;;;;;;5.03;100.00;103060.00;4921746;29;20036;-79
2022/01/15 06:27:08;;;;;;;0.85;0.40;;;;;;;5.05;100.00;103051.19;4890255;29;20126;-79
2022/01/15 06:29:34;;;;;;;1.65;0.70;;;;;;;4.95;100.00;103053.31;4888811;29;20064;-79
2022/01/15 06:31:59;;;;;;;3.30;0.32;;;;;;;4.88;100.00;103056.22;4916456;29;20040;-79
2022/01/15 06:34:24;;;;;;;1.67;0.65;;;;;;;4.89;100.00;103048.31;4899226;29;20040;-79
2022/01/15 06:36:50;;;;;;;1.38;0.50;;;;;;;4.92;100.00;103031.63;4881183;29;20054;-79
2022/01/15 06:39:15;;;;;;;1.00;0.60;;;;;;;4.95;100.00;103034.97;4898062;29;20036;-79
2022/01/15 06:41:41;;;;;;;2.53;0.77;;;;;;;5.00;100.00;103054.88;4896950;29;20138;-79
2022/01/15 06:44:06;;;;;;;1.08;0.43;;;;;;;4.89;100.00;103037.84;4899921;29;20036;-79
2022/01/15 06:46:32;;;;;;;2.72;0.70;;;;;;;5.02;100.00;103037.38;4907930;29;20474;-79
2022/01/15 06:48:57;;;;;;;1.08;0.40;;;;;;;4.88;100.00;103003.91;4926062;29;20131;-79
2022/01/15 06:51:24;;;;;;;1.08;0.60;;;;;;;4.93;100.00;103030.72;4908591;29;20044;-79
2022/01/15 06:53:49;;;;;;;2.80;0.75;;;;;;;4.75;100.00;103019.22;4912109;29;20042;-79
2022/01/15 06:56:15;;;;;;;1.17;0.65;;;;;;;4.82;100.00;103044.22;4903733;29;20630;-79
2022/01/15 06:58:40;;;;;;;4.45;1.30;;;;;;;4.83;100.00;103043.28;4890004;29;20036;-79
2022/01/15 07:01:06;;;;;;;3.17;0.60;;;;;;;4.87;100.00;103047.50;4901683;29;20571;-79
2022/01/15 07:03:31;;;;;;;2.13;0.90;;;;;;;4.81;100.00;103050.34;4889287;29;20040;-79
2022/01/15 07:05:56;;;;;;;2.47;1.00;;;;;;;4.75;100.00;103048.00;4925203;29;20042;-79
2022/01/15 07:08:22;;;;;;;1.75;1.17;;;;;;;4.51;100.00;103024.47;4911779;29;20048;-79
2022/01/15 07:10:47;;;;;;;4.85;1.10;;;;;;;4.52;100.00;103020.91;4921046;29;20035;-79
2022/01/15 07:13:13;;;;;;;1.50;0.73;;;;;;;4.63;100.00;103022.28;4913149;29;20032;-79
2022/01/15 07:15:38;;;;;;;4.30;1.33;;;;;;;4.65;100.00;103042.25;4909225;29;20042;-79
2022/01/15 07:18:04;;;;;;;2.35;0.93;;;;;;;4.58;100.00;103042.53;4905170;29;20035;-79
2022/01/15 07:20:29;;;;;;;3.80;1.02;;;;;;;4.60;100.00;103035.50;4924339;29;20070;-79
2022/01/15 07:22:55;;;;;;;2.40;1.45;;;;;;;4.60;100.00;103025.88;4890352;29;20036;-79
2022/01/15 07:25:20;;;;;;;2.85;1.20;;;;;;;4.49;100.00;103028.88;4909333;29;20036;-79
2022/01/15 07:27:46;;;;;;;3.13;1.40;;;;;;;4.37;100.00;103038.94;4924650;29;20491;-79
2022/01/15 07:30:14;;;;;;;4.47;1.70;;;;;;;4.17;100.00;103026.59;4916555;29;20095;-79
2022/01/15 07:32:40;;;;;;;3.65;1.50;;;;;;;4.28;100.00;103022.69;4892022;29;20032;-79
2022/01/15 07:35:08;;;;;;;2.67;1.30;;;;;;;4.23;100.00;103002.84;4915019;29;20032;-79
2022/01/15 07:37:34;;;;;;;2.67;1.25;;;;;;;4.23;100.00;103010.69;4924454;29;20067;-79
2022/01/15 07:40:00;;;;;;;3.30;1.35;;;;;;;4.30;100.00;103026.09;4920818;29;20028;-79
2022/01/15 07:42:27;;;;;;;3.25;1.40;;;;;;;4.33;100.00;103020.75;4920445;29;20028;-79
2022/01/15 07:44:53;;;;;;;6.75;1.65;;;;;;;4.28;100.00;103000.91;4907899;29;20099;-79
2022/01/15 07:47:18;;;;;;;9.35;1.75;;;;;;;4.26;100.00;102997.50;4917961;29;20036;-79
2022/01/15 07:49:43;;;;;;;12.00;1.98;;;;;;;4.28;100.00;103008.75;4908992;29;20519;-79
2022/01/15 07:52:10;;;;;;;4.25;1.95;;;;;;;4.31;100.00;103009.50;4887746;29;20040;-79
2022/01/15 07:54:35;;;;;;;3.00;1.60;;;;;;;4.36;100.00;103011.94;4913057;29;20095;-79
2022/01/15 07:57:00;;;;;;;2.60;1.98;;;;;;;4.35;100.00;103015.47;4917651;29;20035;-79
2022/01/15 07:59:28;;;;;;;3.65;1.70;;;;;;;4.43;100.00;103030.88;4891009;29;20035;-79
2022/01/15 08:01:53;;;;;;;2.85;2.25;;;;;;;4.43;100.00;103026.50;4920522;29;20046;-79
2022/01/15 08:04:19;;;;;;;7.63;2.28;;;;;;;4.43;100.00;103021.25;4919561;29;20035;-79
2022/01/15 08:06:44;;;;;;;6.00;1.88;;;;;;;4.50;100.00;103016.66;4904741;29;20381;-79
2022/01/15 08:09:10;;;;;;;6.32;1.88;;;;;;;4.50;100.00;103020.13;4899471;29;20032;-80
2022/01/15 08:11:35;;;;;;;3.63;1.33;;;;;;;4.37;100.00;103018.88;4894947;29;20131;-79
2022/01/15 08:14:01;;;;;;;6.57;1.88;;;;;;;4.46;100.00;103018.53;4919042;29;20065;-79
2022/01/15 08:16:26;;;;;;;4.90;1.70;;;;;;;4.40;100.00;103002.22;4903016;29;20044;-79
2022/01/15 08:18:52;;;;;;;4.28;1.90;;;;;;;4.32;100.00;102989.44;4896291;29;20091;-79
2022/01/15 08:21:17;;;;;;;5.80;2.38;;;;;;;4.46;100.00;103013.28;4902007;29;20031;-80
2022/01/15 08:23:43;;;;;;;3.35;2.03;;;;;;;4.46;100.00;103007.22;4918703;29;20088;-79
2022/01/15 08:26:09;;;;;;;6.10;2.35;;;;;;;4.37;100.00;103005.81;4916422;29;20036;-79
2022/01/15 08:28:37;;;;;;;5.20;2.50;;;;;;;4.32;100.00;103008.59;4916273;29;20028;-80
2022/01/15 08:31:03;;;;;;;4.13;2.08;;;;;;;4.31;100.00;103001.66;4919743;29;20091;-79
2022/01/15 08:33:29;;;;;;;7.13;3.05;;;;;;;4.34;100.00;103008.53;4894729;29;20773;-79
2022/01/15 08:35:54;;;;;;;5.65;2.25;;;;;;;4.42;100.00;103008.25;4889065;29;20081;-80
2022/01/15 08:38:20;;;;;;;5.10;2.30;;;;;;;4.30;100.00;102986.03;4918064;29;20039;-80
2022/01/15 08:40:46;;;;;;;15.38;4.05;;;;;;;4.23;100.00;102988.03;4914479;29;20080;-81
2022/01/15 08:43:12;;;;;;;11.10;3.33;;;;;;;4.33;100.00;102999.84;4920414;29;20023;-81
2022/01/15 08:45:38;;;;;;;7.20;3.15;;;;;;;4.46;100.00;103013.28;4888871;29;20032;-79
2022/01/15 08:48:05;;;;;;;9.30;3.30;;;;;;;4.38;100.00;102988.34;4915917;29;20103;-79
2022/01/15 08:50:31;;;;;;;7.78;3.45;;;;;;;4.48;100.00;102998.41;4917204;29;20039;-80
2022/01/15 08:52:57;;;;;;;12.27;3.05;;;;;;;4.56;100.00;102999.91;4915673;29;20067;-79
2022/01/15 08:55:28;;;;;;;7.30;3.13;;;;;;;4.57;100.00;102998.97;4909313;29;20039;-78
2022/01/15 08:57:57;;;;;;;9.35;3.17;;;;;;;4.50;100.00;102982.66;4902184;29;20051;-78
2022/01/15 09:00:22;;;;;;;8.27;3.28;;;;;;;4.56;100.00;102992.06;4884652;29;20090;-78
2022/01/15 09:02:50;;;;;;;7.25;2.80;;;;;;;4.51;100.00;102993.06;4906834;29;20032;-79
2022/01/15 09:05:17;;;;;;;8.30;2.47;;;;;;;4.44;100.00;102985.50;4916837;29;20028;-79
2022/01/15 09:07:42;;;;;;;7.15;3.03;;;;;;;4.43;100.00;102973.34;4920627;29;20039;-79
2022/01/15 09:10:08;;;;;;;7.72;3.63;;;;;;;4.53;100.00;103004.34;4905341;29;20032;-79
2022/01/15 09:12:34;;;;;;;12.63;3.75;;;;;;;4.25;100.00;102956.59;4902103;29;20035;-79
2022/01/15 09:15:00;;;;;;;8.10;3.70;;;;;;;4.50;100.00;102993.13;4902371;29;20028;-79
2022/01/15 09:17:26;;;;;;;7.97;2.63;;;;;;;4.54;100.00;102994.72;4907895;29;20161;-79
2022/01/15 09:19:52;;;;;;;6.07;2.53;;;;;;;4.45;100.00;102969.78;4897636;29;20028;-79
2022/01/15 09:22:18;;;;;;;6.35;2.53;;;;;;;4.46;100.00;102966.22;4919702;29;20067;-79
2022/01/15 09:24:47;;;;;;;6.95;2.28;;;;;;;4.48;100.00;102968.78;4902882;29;20071;-79
2022/01/15 09:30:14;;;;;;;13.95;3.63;;;;;;;4.56;100.00;102981.59;4922971;29;20047;-79
2022/01/15 09:32:51;;;;;;;11.85;4.50;;;;;;;4.58;100.00;102974.53;4920269;29;20078;-78
2022/01/15 09:35:23;;;;;;;4.82;2.08;;;;;;;4.41;100.00;102960.34;4906004;29;20130;-78
2022/01/15 09:37:51;;;;;;;4.85;2.03;;;;;;;4.43;100.00;102973.34;4920533;29;20070;-78
2022/01/15 09:40:19;;;;;;;2.85;1.63;;;;;;;4.46;100.00;102968.00;4907649;29;20067;-79
2022/01/15 09:42:47;;;;;;;3.50;1.98;;;;;;;4.43;100.00;102948.06;4925624;29;20388;-78
2022/01/15 09:45:13;;;;;;;3.72;2.17;;;;;;;4.45;100.00;102953.22;4919784;29;20031;-78
2022/01/15 09:47:40;;;;;;;5.20;1.98;;;;;;;4.43;100.00;102955.91;4876933;29;20903;-79
2022/01/15 09:50:09;;;;;;;2.70;1.65;;;;;;;4.35;100.00;102957.09;4906287;29;20036;-78
2022/01/15 09:52:36;;;;;;;5.00;1.92;;;;;;;4.33;100.00;102954.53;4911764;29;20421;-78
2022/01/15 09:55:04;;;;;;;4.07;1.55;;;;;;;4.31;100.00;102964.19;4910444;29;20067;-78
2022/01/15 09:57:29;;;;;;;4.07;1.90;;;;;;;4.30;100.00;102957.28;4922194;29;20504;-77
2022/01/15 09:59:55;;;;;;;3.45;1.85;;;;;;;4.26;100.00;102953.06;4920665;29;20062;-77
2022/01/15 10:02:21;;;;;;;4.68;2.67;;;;;;;4.36;100.00;102962.28;4923990;29;20023;-77
2022/01/15 10:04:46;;;;;;;3.83;1.83;;;;;;;4.44;100.00;102961.97;4924133;29;20047;-77
2022/01/15 10:07:19;;;;;;;3.70;1.70;;;;;;;4.39;100.00;102954.31;4892333;29;20028;-76
2022/01/15 10:09:46;;;;;;;4.47;2.13;;;;;;;4.49;100.00;102958.28;4916876;29;20114;-77
2022/01/15 10:12:23;;;;;;;2.95;1.60;;;;;;;4.61;100.00;102969.19;4917578;29;20032;-77
2022/01/15 10:14:49;;;;;;;3.80;1.75;;;;;;;4.53;100.00;102966.88;4902206;29;20392;-77
2022/01/15 10:17:33;;;;;;;2.38;1.40;;;;;;;4.51;100.00;102960.84;4919241;29;20024;-77
2022/01/15 10:20:01;;;;;;;4.68;1.70;;;;;;;4.53;100.00;102957.25;4915810;29;20841;-77
2022/01/15 10:22:28;;;;;;;3.85;2.00;;;;;;;4.59;100.00;102950.09;4915333;29;20566;-77
2022/01/15 10:25:07;;;;;;;2.80;1.60;;;;;;;4.53;100.00;102951.19;4919304;29;20444;-77
2022/01/15 10:27:43;;;;;;;2.88;1.70;;;;;;;4.52;100.00;102939.00;4917831;29;20035;-77
2022/01/15 10:30:23;;;;;;;2.38;1.45;;;;;;;4.55;100.00;102938.88;4918407;29;20036;-77
2022/01/15 10:33:01;;;;;;;3.85;2.08;;;;;;;4.53;100.00;102931.13;4917273;29;20068;-77
2022/01/15 10:35:33;;;;;;;3.75;1.95;;;;;;;4.53;100.00;102935.50;4916602;29;20060;-77
2022/01/15 10:38:10;;;;;;;5.18;2.13;;;;;;;4.50;100.00;102925.97;4917377;29;20046;-77
2022/01/15 10:40:38;;;;;;;4.00;1.80;;;;;;;4.61;100.00;102925.56;4918300;29;21385;-78
2022/01/15 10:43:04;;;;;;;4.78;1.90;;;;;;;4.66;100.00;102909.69;4917122;29;20055;-78
2022/01/15 10:45:31;;;;;;;4.93;2.33;;;;;;;4.74;100.00;102923.31;4903237;29;20047;-78
2022/01/15 10:48:01;;;;;;;3.17;2.00;;;;;;;4.79;100.00;102916.16;4916211;29;20172;-77
2022/01/15 10:50:37;;;;;;;7.70;2.88;;;;;;;4.77;100.00;102923.22;4912355;29;20040;-77
2022/01/15 10:53:11;;;;;;;5.60;2.88;;;;;;;4.66;100.00;102917.53;4919051;29;20028;-79
2022/01/15 10:55:38;;;;;;;7.55;4.03;;;;;;;4.67;100.00;102921.88;4919385;29;20428;-77
2022/01/15 10:58:06;;;;;;;10.43;4.50;;;;;;;4.63;100.00;102918.50;4921823;29;20031;-77
2022/01/15 11:00:42;;;;;;;9.27;4.60;;;;;;;4.67;100.00;102916.63;4894142;29;20028;-78
2022/01/15 11:03:13;;;;;;;12.23;5.05;;;;;;;4.55;100.00;102904.88;4923017;29;20034;-78
2022/01/15 11:05:43;;;;;;;12.25;5.50;;;;;;;4.73;100.00;102904.16;4902880;29;20088;-77
2022/01/15 11:08:17;;;;;;;11.93;5.90;;;;;;;4.65;100.00;102908.00;4921147;29;20036;-77
2022/01/15 11:10:44;;;;;;;10.48;4.90;;;;;;;4.61;100.00;102909.03;4919422;29;20292;-78
2022/01/15 11:13:11;;;;;;;9.40;3.83;;;;;;;4.59;100.00;102905.63;4923616;29;20031;-77
2022/01/15 11:15:42;;;;;;;8.43;4.30;;;;;;;4.58;100.00;102896.09;4906075;29;20032;-78
2022/01/15 11:18:13;;;;;;;8.60;5.13;;;;;;;4.42;100.00;102869.66;4921482;29;20063;-78
2022/01/15 11:20:39;;;;;;;9.20;4.25;;;;;;;4.48;100.00;102880.75;4911343;29;20416;-78
2022/01/15 11:23:04;;;;;;;12.70;3.53;;;;;;;4.50;100.00;102886.75;4918931;29;20034;-78
2022/01/15 11:25:30;;;;;;;7.80;3.88;;;;;;;4.59;100.00;102897.78;4916071;29;20050;-78
2022/01/15 11:27:57;;;;;;;9.32;4.32;;;;;;;4.38;100.00;102870.69;4906644;29;20040;-78
2022/01/15 11:30:23;;;;;;;11.60;4.68;;;;;;;4.40;100.00;102853.19;4904373;29;20079;-78
2022/01/15 11:32:49;;;;;;;11.25;5.30;;;;;;;4.48;100.00;102879.88;4921379;29;20051;-78
2022/01/15 11:35:15;;;;;;;10.02;5.35;;;;;;;4.48;100.00;102870.28;4918668;29;20113;-78
2022/01/15 11:37:46;;;;;;;15.95;6.10;;;;;;;4.35;100.00;102853.38;4922014;29;20115;-78
2022/01/15 11:40:36;;;;;;;13.65;5.93;;;;;;;4.55;100.00;102873.50;4911991;29;20123;-78
2022/01/15 11:43:23;;;;;;;17.60;6.80;;;;;;;4.57;100.00;102863.00;4919591;29;20113;-78
2022/01/15 11:45:50;;;;;;;14.05;5.28;;;;;;;4.67;100.00;102866.94;4905999;29;20027;-78